createdAt,value
2022-08-09T00:06:17.558Z,96611.22
2022-08-09T00:12:30.456Z,96620.47
2022-08-09T00:19:37.272Z,96613.63
2022-08-09T00:26:42.813Z,96621.34
2022-08-09T00:33:50.884Z,96627.06
2022-08-09T00:40:54.073Z,96619.94
2022-08-09T00:47:56.483Z,96624.63
2022-08-09T00:55:03.180Z,96625.84
2022-08-09T01:02:07.014Z,96632.94
2022-08-09T01:09:15.313Z,96633.94
2022-08-09T01:16:21.335Z,96626.63
2022-08-09T01:24:03.107Z,96632.72
2022-08-09T01:31:01.018Z,96626.53
2022-08-09T01:38:10.034Z,96625.88
2022-08-09T01:45:19.925Z,96635.63
2022-08-09T01:52:25.384Z,96636.41
2022-08-09T01:59:32.278Z,96635.41
2022-08-09T02:06:54.408Z,96643.09
2022-08-09T02:14:07.642Z,96641.25
2022-08-09T02:21:17.283Z,96647.25
2022-08-09T02:28:26.907Z,96647.34
2022-08-09T02:36:01.902Z,96646.09
2022-08-09T02:42:53.589Z,96637.00
2022-08-09T02:50:01.777Z,96647.53
2022-08-09T02:57:13.982Z,96641.13
2022-08-09T03:04:28.888Z,96638.47
2022-08-09T03:12:05.971Z,96640.69
2022-08-09T03:18:55.886Z,96637.78
2022-08-09T03:26:04.997Z,96630.88
2022-08-09T03:33:17.413Z,96629.56
2022-08-09T03:40:22.688Z,96631.56
2022-08-09T03:47:27.057Z,96641.38
2022-08-09T03:54:31.727Z,96651.47
2022-08-09T04:01:35.855Z,96649.28
2022-08-09T04:08:38.305Z,96651.72
2022-08-09T04:16:20.589Z,96654.72
2022-08-09T04:23:09.759Z,96660.56
2022-08-09T04:30:13.551Z,96663.00
2022-08-09T04:37:16.199Z,96680.56
2022-08-09T04:44:22.875Z,96690.47
2022-08-09T04:51:26.246Z,96699.44
2022-08-09T04:58:29.777Z,96712.97
2022-08-09T05:05:51.900Z,96712.25
2022-08-09T05:12:56.629Z,96720.31
2022-08-09T05:19:59.243Z,96721.19
2022-08-09T05:27:02.989Z,96726.78
2022-08-09T05:34:05.815Z,96733.25
2022-08-09T05:41:08.378Z,96734.56
2022-08-09T05:48:12.210Z,96730.56
2022-08-09T05:55:20.867Z,96746.75
2022-08-09T06:02:24.097Z,96746.94
2022-08-09T06:09:54.741Z,96753.63
2022-08-09T06:16:52.433Z,96757.66
2022-08-09T06:24:01.582Z,96765.31
2022-08-09T06:31:06.364Z,96770.41
2022-08-09T06:38:08.560Z,96781.53
2022-08-09T06:46:05.474Z,96785.31
2022-08-09T06:52:34.950Z,96792.94
2022-08-09T07:00:48.870Z,96783.78
2022-08-09T07:07:00.044Z,96791.56
2022-08-09T07:14:06.225Z,96797.59
2022-08-09T07:21:08.648Z,96781.25
2022-08-09T07:28:12.212Z,96786.09
2022-08-09T07:35:23.259Z,96798.16
2022-08-09T07:42:32.823Z,96808.13
2022-08-09T07:49:35.157Z,96806.28
2022-08-09T07:56:58.797Z,96814.34
2022-08-09T08:04:01.251Z,96817.03
2022-08-09T08:12:24.877Z,96816.31
2022-08-09T08:18:27.098Z,96816.53
2022-08-09T08:25:43.968Z,96819.78
2022-08-09T08:32:53.668Z,96816.50
2022-08-09T08:39:57.449Z,96813.44
2022-08-09T08:47:05.201Z,96826.06
2022-08-09T08:54:20.214Z,96819.44
2022-08-09T09:01:25.016Z,96820.28
2022-08-09T09:08:40.889Z,96817.25
2022-08-09T09:15:49.148Z,96818.19
2022-08-09T09:22:56.897Z,96813.88
2022-08-09T09:30:19.282Z,96808.09
2022-08-09T09:37:35.830Z,96808.09
2022-08-09T09:44:40.853Z,96811.91
2022-08-09T09:51:47.746Z,96809.13
2022-08-09T09:58:53.556Z,96807.97
2022-08-09T10:06:03.279Z,96809.97
2022-08-09T10:13:06.425Z,96798.34
2022-08-09T10:20:26.922Z,96799.75
2022-08-09T10:27:38.600Z,96790.50
2022-08-09T10:34:42.536Z,96783.78
2022-08-09T10:41:46.207Z,96773.38
2022-08-09T10:48:53.989Z,96780.75
2022-08-09T10:56:22.586Z,96767.13
2022-08-09T11:03:27.907Z,96773.22
2022-08-09T11:11:00.888Z,96767.16
2022-08-09T11:18:12.711Z,96778.47
2022-08-09T11:25:25.986Z,96769.56
2022-08-09T11:32:47.581Z,96781.69
2022-08-09T11:40:02.982Z,96771.47
2022-08-09T11:47:06.499Z,96759.09
2022-08-09T11:54:28.802Z,96752.69
2022-08-09T12:01:37.802Z,96747.22
2022-08-09T12:08:58.882Z,96744.53
2022-08-09T12:16:05.904Z,96739.94
2022-08-09T12:23:56.618Z,96741.19
2022-08-09T12:30:50.123Z,96739.91
2022-08-09T12:37:55.576Z,96741.09
2022-08-09T12:44:57.928Z,96725.19
2022-08-09T12:52:03.612Z,96736.25
2022-08-09T12:59:12.045Z,96734.63
2022-08-09T13:06:24.771Z,96710.91
2022-08-09T13:13:29.119Z,96708.94
2022-08-09T13:21:20.596Z,96710.56
2022-08-09T13:28:24.638Z,96696.09
2022-08-09T13:36:23.455Z,96700.38
2022-08-09T13:43:03.502Z,96691.78
2022-08-09T13:50:17.899Z,96681.56
2022-08-09T13:57:37.217Z,96678.34
2022-08-09T14:04:59.794Z,96670.53
2022-08-09T14:12:06.161Z,96690.97
2022-08-09T14:19:20.511Z,96682.56
2022-08-09T14:26:25.304Z,96681.28
2022-08-09T14:33:38.083Z,96678.69
2022-08-09T14:41:01.322Z,96672.91
2022-08-09T14:48:04.525Z,96673.66
2022-08-09T14:55:08.222Z,96672.91
2022-08-09T15:02:10.518Z,96669.69
2022-08-09T15:09:16.749Z,96662.19
2022-08-09T15:16:43.115Z,96646.78
2022-08-09T15:24:09.358Z,96661.91
2022-08-09T15:31:14.746Z,96661.63
2022-08-09T15:38:20.764Z,96653.06
2022-08-09T15:45:29.296Z,96650.34
2022-08-09T15:52:34.278Z,96658.81
2022-08-09T15:59:37.467Z,96652.88
2022-08-09T16:06:39.766Z,96655.84
2022-08-09T16:14:03.574Z,96657.66
2022-08-09T16:21:11.303Z,96652.28
2022-08-09T16:28:13.811Z,96650.66
2022-08-09T16:35:52.990Z,96652.19
2022-08-09T16:42:45.438Z,96647.91
2022-08-09T16:50:29.368Z,96651.50
2022-08-09T16:57:11.765Z,96652.75
2022-08-09T17:04:25.800Z,96662.72
2022-08-09T17:11:41.570Z,96674.41
2022-08-09T17:18:45.826Z,96662.50
2022-08-09T17:25:53.046Z,96654.84
2022-08-09T17:33:00.536Z,96661.03
2022-08-09T17:40:06.380Z,96659.78
2022-08-09T17:47:19.264Z,96659.31
2022-08-09T17:54:29.720Z,96669.28
2022-08-09T18:01:57.788Z,96669.09
2022-08-09T18:08:55.953Z,96665.38
2022-08-09T18:16:08.308Z,96674.97
2022-08-09T18:24:08.582Z,96675.41
2022-08-09T18:30:49.338Z,96677.22
2022-08-09T18:37:54.698Z,96677.66
2022-08-09T18:45:00.811Z,96686.66
2022-08-09T18:52:04.038Z,96701.91
2022-08-09T18:59:07.023Z,96695.66
2022-08-09T19:06:14.641Z,96705.34
2022-08-09T19:13:23.407Z,96713.41
2022-08-09T19:20:41.841Z,96732.13
2022-08-09T19:27:47.885Z,96726.56
2022-08-09T19:34:54.707Z,96734.25
2022-08-09T19:42:02.285Z,96734.28
2022-08-09T19:50:10.286Z,96736.72
2022-08-09T19:56:29.370Z,96738.91
2022-08-09T20:04:17.798Z,96738.81
2022-08-09T20:10:56.042Z,96738.69
2022-08-09T20:17:59.988Z,96737.31
2022-08-09T20:25:02.197Z,96743.31
2022-08-09T20:32:30.536Z,96746.22
2022-08-09T20:40:16.120Z,96743.69
2022-08-09T20:46:53.895Z,96745.19
2022-08-09T20:53:57.486Z,96747.81
2022-08-09T21:01:14.042Z,96742.25
2022-08-09T21:08:32.700Z,96745.94
2022-08-09T21:15:51.892Z,96756.25
2022-08-09T21:22:56.635Z,96755.69
2022-08-09T21:29:59.818Z,96760.81
2022-08-09T21:37:03.433Z,96764.59
2022-08-09T21:44:32.526Z,96760.75
2022-08-09T21:51:43.803Z,96773.63
2022-08-09T21:58:47.598Z,96762.16
2022-08-09T22:05:51.548Z,96765.72
2022-08-09T22:12:53.743Z,96764.00
2022-08-09T22:19:58.565Z,96758.91
2022-08-09T22:27:02.167Z,96758.16
2022-08-09T22:34:09.656Z,96763.78
2022-08-09T22:41:19.257Z,96757.09
2022-08-09T22:48:34.589Z,96764.19
2022-08-09T22:56:07.185Z,96759.31
2022-08-09T23:03:02.426Z,96770.34
2022-08-09T23:10:14.654Z,96764.22
2022-08-09T23:17:16.897Z,96765.34
2022-08-09T23:24:20.431Z,96767.38
2022-08-09T23:31:22.640Z,96756.44
2022-08-09T23:38:24.841Z,96752.13
2022-08-09T23:45:36.400Z,96750.13
2022-08-09T23:52:39.804Z,96746.53
